Windham, NY (12496)

7:28 PM EST on November 21, 2014 (GMT -0500)
Townhouse at Base of Windham Ski Resort | Change Station
CLOSE
Current Station
Personal Weather Station
Location: Windham, NY
Elevation: 1640 ft
Nearby Weather Stations

Elev 1640 ft 42.30 °N, 74.26 °W | Updated 7 minutes ago

Clear
Clear
18.1 °F
Feels Like 18 °F
N
2.7
Wind Variable Wind from SE

Today
High -- | Low -- °F
--% Chance of Precip.
Yesterday
High -- | Low -- °F
Precip. -- in
6:55 AM 4:30 PM
Waning Crescent, 0% visible
Pressure 30.45 in
Visibility 10.0 miles
Clouds Clear
Windchill 18 °F
Dew Point 11 °F
Humidity 73%
Rainfall 0.00 in
Snow Depth Not available.
UV 0 out of 12
Pollen .10 out of 12
Air Quality Not available.
Flu Activity Not available.
METAR KALB 212351Z 28004KT 10SM CLR M04/M12 A3044 RMK AO2 SLP312 T10441122 10000 21044 51027

More Conditions Fewer Conditions

Pressure 30.45 in
Visibility 10.0 miles
Clouds Clear
Windchill 18 °F
Dew Point 11 °F
Humidity 73%
Rainfall 0.00 in
Snow Depth Not available.
UV 0 out of 12
Pollen .10 out of 12
Air Quality Not available.
Flu Activity Not available.
METAR KALB 212351Z 28004KT 10SM CLR M04/M12 A3044 RMK AO2 SLP312 T10441122 10000 21044 51027

More Conditions Fewer Conditions

10-Day Weather Forecast

Almanac

Astronomy

Nov. 21, 2014 Rise Set
Actual Time
Civil Twilight
Nautical Twilight
Astronomical Twilight
Moon
Length of Visible Light
Length of Day
Tomorrow will be .
, % of the Moon is Illuminated

Today's Extremes

State Highs State Lows

Community

WunderPhotos

Upload Photos

1,772,744 photos uploaded!

WunderBlogs® & News

Nearby

Air Quality

  Air Quality AQ Index Pollutant
Not available.

Snow Depth

Station Depth Elevation

Earthquake Activity

City Distance Mag. Time & Date
Minimum magnitude displayed is 2.5.

Coastal Water Temperatures

Place Temperature

Nearby Weather Stations